createdAt,value
2023-02-25T00:18:25.300Z,19.6
2023-02-25T00:48:25.300Z,19.6
2023-02-25T01:18:25.312Z,19.5
2023-02-25T01:48:25.316Z,19.4
2023-02-25T02:18:25.346Z,19.4
2023-02-25T02:48:25.289Z,19.3
2023-02-25T03:18:25.318Z,19.3
2023-02-25T03:48:25.364Z,19.3
2023-02-25T04:18:25.298Z,19.2
2023-02-25T04:48:25.332Z,19.1
2023-02-25T05:18:25.287Z,19.1
2023-02-25T05:48:25.346Z,19.2
2023-02-25T06:18:25.422Z,19.4
2023-02-25T06:48:25.300Z,19.6
2023-02-25T07:18:25.324Z,19.8
2023-02-25T07:48:25.305Z,20.0
2023-02-25T08:18:25.317Z,20.0
2023-02-25T08:48:25.307Z,20.1
2023-02-25T09:18:25.288Z,20.2
2023-02-25T09:48:25.309Z,20.3
2023-02-25T10:18:25.273Z,20.3
2023-02-25T10:48:25.268Z,20.4
2023-02-25T11:18:25.440Z,20.4
2023-02-25T11:48:25.400Z,20.5
2023-02-25T12:18:25.257Z,20.5
2023-02-25T12:48:25.284Z,20.5
2023-02-25T13:18:25.280Z,20.6
2023-02-25T13:48:25.268Z,20.6
2023-02-25T14:18:25.237Z,20.6
2023-02-25T14:48:25.251Z,20.6
2023-02-25T15:18:25.283Z,20.8
2023-02-25T15:48:25.235Z,20.7
2023-02-25T16:18:25.240Z,20.8
2023-02-25T16:48:25.242Z,20.9
2023-02-25T17:18:25.261Z,21.0
2023-02-25T17:48:25.226Z,21.0
2023-02-25T18:18:25.279Z,21.0
2023-02-25T18:48:25.280Z,21.0
2023-02-25T19:18:25.229Z,21.0
2023-02-25T19:48:25.398Z,21.0
2023-02-25T20:18:25.297Z,20.8
2023-02-25T20:48:25.213Z,20.6
2023-02-25T21:18:25.294Z,20.5
2023-02-25T21:48:25.231Z,20.3
2023-02-25T22:18:25.242Z,20.2
2023-02-25T22:48:25.216Z,20.1
2023-02-25T23:18:25.323Z,20.0
2023-02-25T23:48:25.245Z,19.9
